Weather at Saint Martin de Castillon

Public forecast

Using degrees Celsius for public forecast. Weather courtesy of forecast.io.

Closest aviation weather report (METAR) to Saint Martin de Castillon

Report is more than 6 hours old.

Closest report is Salon-de-Provence (BA 701) Air Base, 24.0 nm (44.5 km) SW. Retrieved 2022/09/17 19:00 UTC (18 days ago):

LFMY 171900Z AUTO 32028KT CAVOK 16/05 Q1012

Closest aviation forecast (TAF) to Saint Martin de Castillon

Forecast is more than 12 hours old.

Closest forecast is Salon-de-Provence (BA 701) Air Base, 24.0 nm (44.5 km) SW. Retrieved 2022/09/16 15:39 UTC (19 days ago):

TAF LFMY 161529Z 1615/1715 CNL